createdAt,value
2022-09-18T00:04:16.003Z,11.60
2022-09-18T00:08:43.715Z,11.60
2022-09-18T00:13:10.389Z,11.70
2022-09-18T00:17:35.569Z,11.70
2022-09-18T00:22:00.762Z,11.60
2022-09-18T00:26:26.868Z,11.60
2022-09-18T00:30:53.708Z,11.60
2022-09-18T00:35:19.111Z,11.60
2022-09-18T00:39:44.338Z,11.60
2022-09-18T00:44:41.041Z,11.60
2022-09-18T00:49:18.951Z,11.60
2022-09-18T00:53:51.741Z,11.50
2022-09-18T00:58:17.090Z,11.40
2022-09-18T01:02:44.903Z,11.40
2022-09-18T01:07:50.704Z,11.40
2022-09-18T01:12:37.032Z,11.40
2022-09-18T01:17:30.004Z,11.40
2022-09-18T01:22:25.832Z,11.30
2022-09-18T01:26:59.451Z,11.30
2022-09-18T01:31:34.935Z,11.30
2022-09-18T01:36:05.008Z,11.30
2022-09-18T01:41:10.182Z,11.20
2022-09-18T01:45:44.277Z,11.30
2022-09-18T01:50:11.274Z,11.30
2022-09-18T01:54:41.790Z,11.30
2022-09-18T01:59:13.387Z,11.30
2022-09-18T02:04:10.018Z,11.30
2022-09-18T02:08:54.600Z,11.40
2022-09-18T02:13:26.412Z,11.40
2022-09-18T02:17:58.610Z,11.40
2022-09-18T02:22:24.885Z,11.40
2022-09-18T02:26:53.337Z,11.40
2022-09-18T02:31:18.598Z,11.40
2022-09-18T02:35:47.616Z,11.40
2022-09-18T02:40:57.338Z,11.40
2022-09-18T02:45:48.322Z,11.40
2022-09-18T02:51:11.642Z,11.40
2022-09-18T02:55:50.967Z,11.40
2022-09-18T03:00:18.751Z,11.30
2022-09-18T03:04:44.762Z,11.30
2022-09-18T03:09:10.012Z,11.20
2022-09-18T03:13:35.467Z,11.30
2022-09-18T03:18:00.789Z,11.20
2022-09-18T03:22:26.085Z,11.20
2022-09-18T03:26:52.862Z,11.20
2022-09-18T03:31:18.146Z,11.20
2022-09-18T03:35:44.419Z,11.10
2022-09-18T03:40:10.113Z,11.10
2022-09-18T03:44:35.334Z,11.10
2022-09-18T03:49:00.600Z,11.10
2022-09-18T03:53:26.226Z,11.10
2022-09-18T03:57:51.428Z,11.10
2022-09-18T04:02:16.939Z,11.10
2022-09-18T04:06:42.198Z,11.10
2022-09-18T04:11:07.474Z,11.10
2022-09-18T04:15:32.700Z,11.10
2022-09-18T04:19:57.911Z,11.10
2022-09-18T04:24:23.206Z,11.10
2022-09-18T04:28:48.458Z,11.00
2022-09-18T04:33:15.839Z,11.00
2022-09-18T04:37:44.448Z,11.00
2022-09-18T04:42:09.640Z,10.90
2022-09-18T04:46:35.042Z,10.90
2022-09-18T04:51:00.307Z,10.90
2022-09-18T04:55:25.733Z,10.90
2022-09-18T04:59:51.344Z,10.90
2022-09-18T05:04:16.677Z,10.90
2022-09-18T05:08:41.998Z,10.90
2022-09-18T05:13:07.376Z,10.80
2022-09-18T05:17:33.030Z,10.80
2022-09-18T05:21:58.323Z,10.80
2022-09-18T05:26:23.513Z,10.90
2022-09-18T05:30:50.077Z,10.90
2022-09-18T05:35:15.396Z,10.90
2022-09-18T05:39:41.287Z,10.90
2022-09-18T05:44:06.614Z,10.80
2022-09-18T05:48:31.775Z,10.90
2022-09-18T05:53:12.263Z,10.90
2022-09-18T05:57:37.717Z,10.90
2022-09-18T06:02:03.098Z,10.90
2022-09-18T06:06:29.348Z,10.90
2022-09-18T06:10:54.735Z,10.90
2022-09-18T06:15:19.974Z,10.90
2022-09-18T06:19:45.594Z,11.00
2022-09-18T06:24:10.817Z,11.00
2022-09-18T06:28:36.080Z,11.10
2022-09-18T06:33:08.858Z,11.10
2022-09-18T06:37:34.061Z,11.20
2022-09-18T06:42:02.281Z,11.20
2022-09-18T06:46:27.503Z,11.30
2022-09-18T06:50:55.346Z,11.30
2022-09-18T06:55:20.544Z,11.20
2022-09-18T06:59:45.740Z,11.20
2022-09-18T07:04:10.946Z,11.20
2022-09-18T07:08:36.374Z,11.30
2022-09-18T07:13:02.265Z,11.30
2022-09-18T07:17:27.809Z,11.30
2022-09-18T07:21:53.289Z,11.40
2022-09-18T07:26:19.162Z,11.40
2022-09-18T07:30:44.435Z,11.50
2022-09-18T07:35:10.734Z,11.50
2022-09-18T07:39:35.934Z,11.50
2022-09-18T07:44:03.075Z,11.50
2022-09-18T07:48:29.244Z,11.50
2022-09-18T07:52:57.903Z,11.60
2022-09-18T07:57:23.380Z,11.60
2022-09-18T08:01:49.066Z,11.70
2022-09-18T08:06:14.641Z,11.80
2022-09-18T08:10:42.195Z,11.90
2022-09-18T08:15:08.263Z,12.10
2022-09-18T08:19:33.650Z,12.20
2022-09-18T08:23:58.967Z,12.40
2022-09-18T08:28:24.235Z,12.50
2022-09-18T08:32:49.531Z,12.60
2022-09-18T08:37:14.890Z,12.80
2022-09-18T08:42:17.778Z,13.00
2022-09-18T08:46:53.021Z,13.20
2022-09-18T08:52:00.032Z,13.30
2022-09-18T08:56:27.136Z,13.50
2022-09-18T09:01:16.316Z,13.70
2022-09-18T09:06:09.358Z,13.70
2022-09-18T09:10:58.720Z,13.80
2022-09-18T09:15:27.042Z,14.10
2022-09-18T09:20:20.391Z,14.10
2022-09-18T09:25:04.037Z,14.20
2022-09-18T09:29:40.168Z,14.20
2022-09-18T09:34:20.696Z,14.00
2022-09-18T09:39:06.523Z,14.00
2022-09-18T09:44:12.117Z,13.90
2022-09-18T09:48:51.053Z,13.80
2022-09-18T09:53:16.415Z,13.60
2022-09-18T09:58:05.891Z,13.60
2022-09-18T10:02:56.305Z,13.60
2022-09-18T10:07:37.209Z,13.60
2022-09-18T10:12:32.031Z,13.80
2022-09-18T10:16:58.445Z,13.90
2022-09-18T10:21:29.244Z,14.00
2022-09-18T10:26:01.316Z,14.20
2022-09-18T10:30:26.581Z,14.40
2022-09-18T10:34:51.777Z,14.50
2022-09-18T10:39:35.090Z,14.70
2022-09-18T10:44:18.242Z,15.00
2022-09-18T10:48:44.778Z,15.20
2022-09-18T10:53:30.037Z,15.40
2022-09-18T10:57:58.251Z,15.60
2022-09-18T11:02:27.315Z,15.60
2022-09-18T11:06:52.927Z,15.60
2022-09-18T11:11:28.002Z,15.60
2022-09-18T11:16:02.733Z,15.50
2022-09-18T11:20:40.304Z,15.30
2022-09-18T11:25:23.522Z,15.30
2022-09-18T11:29:49.042Z,15.50
2022-09-18T11:34:36.167Z,15.30
2022-09-18T11:39:02.493Z,14.90
2022-09-18T11:43:34.221Z,14.60
2022-09-18T11:48:24.200Z,14.50
2022-09-18T11:52:54.924Z,14.60
2022-09-18T11:58:06.596Z,14.60
2022-09-18T12:03:10.208Z,14.70
2022-09-18T12:07:50.667Z,14.80
2022-09-18T12:12:23.388Z,15.00
2022-09-18T12:17:02.280Z,15.30
2022-09-18T12:21:51.109Z,15.50
2022-09-18T12:26:26.858Z,15.30
2022-09-18T12:31:03.862Z,15.30
2022-09-18T12:35:47.588Z,15.40
2022-09-18T12:40:26.255Z,15.60
2022-09-18T12:45:35.640Z,15.70
2022-09-18T12:50:35.243Z,15.60
2022-09-18T12:55:12.448Z,15.60
2022-09-18T13:00:03.777Z,15.60
2022-09-18T13:04:43.443Z,15.40
2022-09-18T13:09:33.434Z,15.10
2022-09-18T13:14:22.790Z,15.00
2022-09-18T13:19:04.029Z,14.80
2022-09-18T13:23:35.890Z,14.90
2022-09-18T13:28:06.874Z,15.00
2022-09-18T13:32:35.373Z,15.00
2022-09-18T13:37:06.851Z,15.10
2022-09-18T13:41:49.380Z,15.10
2022-09-18T13:46:35.513Z,15.20
2022-09-18T13:51:25.413Z,15.30
2022-09-18T13:55:52.004Z,15.30
2022-09-18T14:00:20.402Z,15.40
2022-09-18T14:04:48.517Z,15.60
2022-09-18T14:10:03.055Z,15.60
2022-09-18T14:14:29.402Z,15.80
2022-09-18T14:19:06.169Z,15.90
2022-09-18T14:23:37.160Z,16.00
2022-09-18T14:28:05.613Z,16.10
2022-09-18T14:32:32.564Z,16.30
2022-09-18T14:37:02.138Z,16.10
2022-09-18T14:41:34.624Z,16.00
2022-09-18T14:46:00.527Z,15.80
2022-09-18T14:50:37.523Z,15.60
2022-09-18T14:55:17.566Z,15.50
2022-09-18T14:59:42.907Z,15.30
2022-09-18T15:04:31.307Z,15.30
2022-09-18T15:08:57.749Z,15.20
2022-09-18T15:13:23.154Z,15.20
2022-09-18T15:17:53.725Z,15.10
2022-09-18T15:22:25.633Z,15.00
2022-09-18T15:26:59.332Z,15.00
2022-09-18T15:31:33.196Z,14.80
2022-09-18T15:35:58.832Z,14.70
2022-09-18T15:40:37.611Z,14.60
2022-09-18T15:45:03.931Z,14.60
2022-09-18T15:49:38.142Z,14.60
2022-09-18T15:54:12.256Z,14.60
2022-09-18T15:58:55.464Z,14.60
2022-09-18T16:03:20.709Z,14.60
2022-09-18T16:08:18.908Z,14.50
2022-09-18T16:12:44.265Z,14.50
2022-09-18T16:17:28.321Z,14.40
2022-09-18T16:21:53.806Z,14.40
2022-09-18T16:26:33.812Z,14.30
2022-09-18T16:30:59.313Z,14.30
2022-09-18T16:35:26.190Z,14.30
2022-09-18T16:39:51.653Z,14.40
2022-09-18T16:44:18.939Z,14.30
2022-09-18T16:48:44.596Z,14.30
2022-09-18T16:53:10.007Z,14.20
2022-09-18T16:57:35.589Z,14.10
2022-09-18T17:02:04.535Z,13.90
2022-09-18T17:06:30.184Z,13.80
2022-09-18T17:10:55.437Z,13.70
2022-09-18T17:15:21.325Z,13.60
2022-09-18T17:19:46.702Z,13.60
2022-09-18T17:24:12.022Z,13.50
2022-09-18T17:28:38.280Z,13.50
2022-09-18T17:33:03.625Z,13.40
2022-09-18T17:37:30.104Z,13.40
2022-09-18T17:41:55.712Z,13.30
2022-09-18T17:46:21.423Z,13.20
2022-09-18T17:50:46.638Z,13.20
2022-09-18T17:55:13.208Z,13.10
2022-09-18T17:59:40.704Z,13.10
2022-09-18T18:04:07.126Z,13.10
2022-09-18T18:08:32.910Z,13.00
2022-09-18T18:12:58.610Z,12.90
2022-09-18T18:17:24.594Z,12.90
2022-09-18T18:21:50.091Z,12.90
2022-09-18T18:26:15.613Z,12.90
2022-09-18T18:30:45.157Z,12.80
2022-09-18T18:35:11.249Z,12.70
2022-09-18T18:39:37.062Z,12.70
2022-09-18T18:44:06.072Z,12.70
2022-09-18T18:48:32.113Z,12.70
2022-09-18T18:52:57.282Z,12.70
2022-09-18T18:57:22.554Z,12.70
2022-09-18T19:01:48.103Z,12.60
2022-09-18T19:06:14.721Z,12.60
2022-09-18T19:10:40.366Z,12.60
2022-09-18T19:15:06.263Z,12.60
2022-09-18T19:19:31.783Z,12.50
2022-09-18T19:23:59.380Z,12.50
2022-09-18T19:28:24.810Z,12.40
2022-09-18T19:32:55.098Z,12.40
2022-09-18T19:37:20.290Z,12.40
2022-09-18T19:42:09.768Z,12.40
2022-09-18T19:46:35.564Z,12.40
2022-09-18T19:51:01.311Z,12.30
2022-09-18T19:55:27.341Z,12.30
2022-09-18T19:59:57.220Z,12.20
2022-09-18T20:04:22.642Z,12.30
2022-09-18T20:08:47.908Z,12.30
2022-09-18T20:13:13.310Z,12.20
2022-09-18T20:17:39.408Z,12.30
2022-09-18T20:22:05.173Z,12.30
2022-09-18T20:26:30.552Z,12.30
2022-09-18T20:30:55.726Z,12.20
2022-09-18T20:35:21.142Z,12.30
2022-09-18T20:39:46.485Z,12.30
2022-09-18T20:44:11.777Z,12.30
2022-09-18T20:48:42.052Z,12.30
2022-09-18T20:53:08.273Z,12.20
2022-09-18T20:57:33.626Z,12.20
2022-09-18T21:01:58.893Z,12.20
2022-09-18T21:06:31.926Z,12.20
2022-09-18T21:11:02.554Z,12.20
2022-09-18T21:15:28.631Z,12.20
2022-09-18T21:19:54.840Z,12.10
2022-09-18T21:24:22.266Z,12.10
2022-09-18T21:29:11.262Z,12.00
2022-09-18T21:33:37.189Z,12.00
2022-09-18T21:38:04.676Z,12.00
2022-09-18T21:42:30.535Z,12.10
2022-09-18T21:47:01.990Z,12.10
2022-09-18T21:51:27.395Z,12.10
2022-09-18T21:56:03.324Z,12.10
2022-09-18T22:00:28.693Z,12.10
2022-09-18T22:04:55.123Z,12.10
2022-09-18T22:09:24.385Z,12.10
2022-09-18T22:13:50.433Z,12.10
2022-09-18T22:18:15.809Z,12.00
2022-09-18T22:22:42.758Z,12.00
2022-09-18T22:27:08.751Z,11.90
2022-09-18T22:31:39.337Z,11.90
2022-09-18T22:36:05.695Z,11.90
2022-09-18T22:40:30.936Z,11.90
2022-09-18T22:44:56.152Z,11.90
2022-09-18T22:49:23.563Z,11.90
2022-09-18T22:53:57.123Z,11.90
2022-09-18T22:58:22.433Z,11.90
2022-09-18T23:02:47.629Z,12.00
2022-09-18T23:07:13.274Z,12.00
2022-09-18T23:11:38.593Z,12.00
2022-09-18T23:16:10.702Z,12.10
2022-09-18T23:20:35.933Z,12.10
2022-09-18T23:25:01.122Z,12.00
2022-09-18T23:29:28.466Z,12.00
2022-09-18T23:33:57.299Z,12.00
2022-09-18T23:38:22.635Z,11.90
2022-09-18T23:42:48.026Z,11.90
2022-09-18T23:47:13.202Z,11.90
2022-09-18T23:51:42.706Z,11.90
2022-09-18T23:56:13.453Z,12.00
